createdAt,value
2023-04-04T00:00:35.146Z,-2.30
2023-04-04T00:03:03.515Z,-2.30
2023-04-04T00:05:30.562Z,-2.32
2023-04-04T00:07:57.516Z,-2.27
2023-04-04T00:10:24.428Z,-2.20
2023-04-04T00:12:51.414Z,-2.27
2023-04-04T00:15:18.181Z,-2.33
2023-04-04T00:17:45.201Z,-2.28
2023-04-04T00:20:12.340Z,-2.29
2023-04-04T00:22:39.354Z,-2.20
2023-04-04T00:25:06.522Z,-2.10
2023-04-04T00:27:33.282Z,-2.05
2023-04-04T00:30:00.163Z,-2.10
2023-04-04T00:32:27.518Z,-2.20
2023-04-04T00:34:54.510Z,-2.17
2023-04-04T00:37:21.904Z,-2.24
2023-04-04T00:39:50.394Z,-2.31
2023-04-04T00:42:17.537Z,-2.41
2023-04-04T00:44:44.445Z,-2.42
2023-04-04T00:47:11.560Z,-2.48
2023-04-04T00:49:38.481Z,-2.72
2023-04-04T00:52:10.336Z,-2.33
2023-04-04T00:54:37.247Z,-2.33
2023-04-04T00:57:07.317Z,-2.36
2023-04-04T00:59:34.528Z,-2.28
2023-04-04T01:02:01.872Z,-2.28
2023-04-04T01:04:32.243Z,-2.28
2023-04-04T01:06:59.879Z,-2.32
2023-04-04T01:09:27.821Z,-2.40
2023-04-04T01:11:55.986Z,-2.33
2023-04-04T01:14:23.418Z,-2.25
2023-04-04T01:16:51.747Z,-2.20
2023-04-04T01:19:39.431Z,-2.16
2023-04-04T01:22:07.005Z,-2.24
2023-04-04T01:24:37.224Z,-2.39
2023-04-04T01:27:04.030Z,-2.55
2023-04-04T01:29:31.431Z,-2.59
2023-04-04T01:32:08.644Z,-2.61
2023-04-04T01:34:48.510Z,-2.66
2023-04-04T01:37:33.812Z,-2.58
2023-04-04T01:40:07.427Z,-2.66
2023-04-04T01:42:35.140Z,-2.64
2023-04-04T01:45:01.985Z,-2.52
2023-04-04T01:47:29.643Z,-2.44
2023-04-04T01:49:56.733Z,-2.49
2023-04-04T01:52:23.727Z,-2.56
2023-04-04T01:54:50.953Z,-2.63
2023-04-04T01:57:17.812Z,-2.71
2023-04-04T01:59:44.834Z,-2.73
2023-04-04T02:02:11.772Z,-2.78
2023-04-04T02:04:38.997Z,-2.74
2023-04-04T02:07:06.684Z,-2.79
2023-04-04T02:09:33.837Z,-2.83
2023-04-04T02:12:01.294Z,-2.79
2023-04-04T02:14:28.925Z,-2.75
2023-04-04T02:16:58.843Z,-2.75
2023-04-04T02:19:26.140Z,-2.67
2023-04-04T02:21:53.195Z,-2.61
2023-04-04T02:24:20.127Z,-2.56
2023-04-04T02:26:47.084Z,-2.64
2023-04-04T02:29:14.080Z,-2.55
2023-04-04T02:31:40.914Z,-2.57
2023-04-04T02:34:07.796Z,-2.45
2023-04-04T02:36:34.666Z,-2.43
2023-04-04T02:39:03.047Z,-2.37
2023-04-04T02:41:30.016Z,-2.50
2023-04-04T02:43:56.935Z,-2.43
2023-04-04T02:46:23.736Z,-2.47
2023-04-04T02:48:52.419Z,-2.42
2023-04-04T02:51:19.239Z,-2.44
2023-04-04T02:53:47.135Z,-2.43
2023-04-04T02:56:14.500Z,-2.40
2023-04-04T02:58:42.743Z,-2.36
2023-04-04T03:01:09.592Z,-2.35
2023-04-04T03:03:36.934Z,-2.38
2023-04-04T03:06:03.899Z,-2.34
2023-04-04T03:08:30.835Z,-2.33
2023-04-04T03:10:57.696Z,-2.29
2023-04-04T03:13:24.561Z,-2.26
2023-04-04T03:15:51.560Z,-2.22
2023-04-04T03:18:18.363Z,-2.26
2023-04-04T03:20:45.717Z,-2.23
2023-04-04T03:23:12.769Z,-2.14
2023-04-04T03:25:39.692Z,-2.14
2023-04-04T03:28:12.846Z,-2.15
2023-04-04T03:30:40.224Z,-2.26
2023-04-04T03:33:10.508Z,-2.14
2023-04-04T03:35:41.068Z,-2.21
2023-04-04T03:38:09.665Z,-2.20
2023-04-04T03:40:36.984Z,-2.16
2023-04-04T03:43:03.935Z,-2.12
2023-04-04T03:45:36.001Z,-2.07
2023-04-04T03:48:02.996Z,-2.06
2023-04-04T03:50:30.841Z,-2.03
2023-04-04T03:52:58.705Z,-2.08
2023-04-04T03:55:26.509Z,-2.03
2023-04-04T03:57:54.152Z,-2.01
2023-04-04T04:00:20.907Z,-1.98
2023-04-04T04:02:47.915Z,-1.96
2023-04-04T04:05:15.643Z,-1.92
2023-04-04T04:07:45.740Z,-1.92
2023-04-04T04:10:14.489Z,-1.96
2023-04-04T04:12:42.022Z,-1.88
2023-04-04T04:15:09.184Z,-1.93
2023-04-04T04:17:40.067Z,-1.96
2023-04-04T04:20:09.135Z,-1.98
2023-04-04T04:22:36.319Z,-2.02
2023-04-04T04:25:03.520Z,-2.40
2023-04-04T04:27:33.299Z,-2.05
2023-04-04T04:30:00.235Z,-2.05
2023-04-04T04:32:27.570Z,-2.05
2023-04-04T04:34:54.461Z,-2.05
2023-04-04T04:37:21.952Z,-2.05
2023-04-04T04:39:48.804Z,-1.98
2023-04-04T04:42:15.814Z,-2.00
2023-04-04T04:44:42.853Z,-1.99
2023-04-04T04:47:09.858Z,-2.01
2023-04-04T04:49:36.662Z,-1.98
2023-04-04T04:52:03.787Z,-1.97
2023-04-04T04:54:30.659Z,-2.03
2023-04-04T04:56:57.942Z,-2.02
2023-04-04T04:59:24.813Z,-1.90
2023-04-04T05:01:51.627Z,-1.79
2023-04-04T05:04:18.680Z,-1.69
2023-04-04T05:06:45.567Z,-1.52
2023-04-04T05:09:12.489Z,-1.39
2023-04-04T05:11:39.512Z,-1.22
2023-04-04T05:14:07.199Z,-1.02
2023-04-04T05:16:34.438Z,-0.79
2023-04-04T05:19:01.483Z,-0.75
2023-04-04T05:21:28.370Z,-1.05
2023-04-04T05:23:55.521Z,-0.46
2023-04-04T05:26:22.495Z,-0.33
2023-04-04T05:28:49.377Z,-0.06
2023-04-04T05:31:16.514Z,0.38
2023-04-04T05:33:43.510Z,0.95
2023-04-04T05:36:13.010Z,1.68
2023-04-04T05:38:39.847Z,1.81
2023-04-04T05:41:06.627Z,1.82
2023-04-04T05:43:33.878Z,2.05
2023-04-04T05:46:00.931Z,2.42
2023-04-04T05:48:27.818Z,3.06
2023-04-04T05:50:54.849Z,4.03
2023-04-04T05:53:21.700Z,4.88
2023-04-04T05:55:53.578Z,5.02
2023-04-04T05:58:20.882Z,4.47
2023-04-04T06:00:50.999Z,4.36
2023-04-04T06:03:20.409Z,4.22
2023-04-04T06:05:54.728Z,4.20
2023-04-04T06:08:22.267Z,4.14
2023-04-04T06:10:49.269Z,4.37
2023-04-04T06:13:17.050Z,5.47
2023-04-04T06:15:43.999Z,7.35
2023-04-04T06:18:11.431Z,8.62
2023-04-04T06:20:38.755Z,9.02
2023-04-04T06:23:05.932Z,9.66
2023-04-04T06:25:33.031Z,10.62
2023-04-04T06:27:59.965Z,11.87
2023-04-04T06:30:26.902Z,12.78
2023-04-04T06:32:53.933Z,13.93
2023-04-04T06:35:22.397Z,14.51
2023-04-04T06:37:55.928Z,14.95
2023-04-04T06:40:23.563Z,14.95
2023-04-04T06:42:58.241Z,15.10
2023-04-04T06:45:25.499Z,14.33
2023-04-04T06:47:55.510Z,15.00
2023-04-04T06:50:23.290Z,16.07
2023-04-04T06:52:50.895Z,17.10
2023-04-04T06:55:18.819Z,17.33
2023-04-04T06:57:45.869Z,16.11
2023-04-04T07:00:13.922Z,13.96
2023-04-04T07:02:41.043Z,12.69
2023-04-04T07:05:08.856Z,13.71
2023-04-04T07:07:35.858Z,14.09
2023-04-04T07:10:05.259Z,15.70
2023-04-04T07:12:32.299Z,16.82
2023-04-04T07:14:59.175Z,17.40
2023-04-04T07:17:26.140Z,17.07
2023-04-04T07:19:53.007Z,15.91
2023-04-04T07:22:19.934Z,15.99
2023-04-04T07:24:48.434Z,14.73
2023-04-04T07:27:16.269Z,14.73
2023-04-04T07:29:43.230Z,14.14
2023-04-04T07:32:10.210Z,13.31
2023-04-04T07:34:37.278Z,12.28
2023-04-04T07:37:04.478Z,12.88
2023-04-04T07:39:32.178Z,12.52
2023-04-04T07:41:58.960Z,12.68
2023-04-04T07:44:25.843Z,13.59
2023-04-04T07:47:06.246Z,13.24
2023-04-04T07:49:35.966Z,14.42
2023-04-04T07:52:03.462Z,16.38
2023-04-04T07:54:30.422Z,18.22
2023-04-04T07:56:57.557Z,17.11
2023-04-04T07:59:24.506Z,16.80
2023-04-04T08:01:54.699Z,16.75
2023-04-04T08:04:21.569Z,16.08
2023-04-04T08:06:48.473Z,15.30
2023-04-04T08:09:15.426Z,15.33
2023-04-04T08:11:42.902Z,15.06
2023-04-04T08:14:12.392Z,14.17
2023-04-04T08:16:39.702Z,14.07
2023-04-04T08:19:08.162Z,13.97
2023-04-04T08:21:35.062Z,14.67
2023-04-04T08:24:02.010Z,15.06
2023-04-04T08:26:29.535Z,15.74
2023-04-04T08:28:56.513Z,16.58
2023-04-04T08:31:23.799Z,16.98
2023-04-04T08:33:51.014Z,17.04
2023-04-04T08:36:18.042Z,17.22
2023-04-04T08:38:44.973Z,18.71
2023-04-04T08:41:13.513Z,18.63
2023-04-04T08:43:44.791Z,20.11
2023-04-04T08:46:12.984Z,23.43
2023-04-04T08:48:42.997Z,24.77
2023-04-04T08:51:12.571Z,25.94
2023-04-04T08:53:40.046Z,27.62
2023-04-04T08:56:07.127Z,28.67
2023-04-04T08:58:34.510Z,29.69
2023-04-04T09:01:02.187Z,30.02
2023-04-04T09:03:33.235Z,31.46
2023-04-04T09:06:02.239Z,31.37
2023-04-04T09:08:29.681Z,31.99
2023-04-04T09:10:57.600Z,30.94
2023-04-04T09:13:24.518Z,29.07
2023-04-04T09:15:57.639Z,26.29
2023-04-04T09:18:24.789Z,25.07
2023-04-04T09:20:51.659Z,23.30
2023-04-04T09:23:21.002Z,18.75
2023-04-04T09:26:03.169Z,20.32
2023-04-04T09:28:31.955Z,24.16
2023-04-04T09:31:03.297Z,26.06
2023-04-04T09:33:31.920Z,25.64
2023-04-04T09:36:10.382Z,26.17
2023-04-04T09:38:39.977Z,29.27
2023-04-04T09:41:11.644Z,30.84
2023-04-04T09:43:40.151Z,29.97
2023-04-04T09:46:08.090Z,28.77
2023-04-04T09:48:37.146Z,26.05
2023-04-04T09:51:08.098Z,25.16
2023-04-04T09:53:37.399Z,21.85
2023-04-04T09:56:04.564Z,22.40
2023-04-04T09:58:40.451Z,20.72
2023-04-04T10:01:12.867Z,19.73
2023-04-04T10:03:40.213Z,21.86
2023-04-04T10:06:08.602Z,24.76
2023-04-04T10:08:39.817Z,26.74
2023-04-04T10:11:11.510Z,29.09
2023-04-04T10:13:46.904Z,29.41
2023-04-04T10:16:14.576Z,28.32
2023-04-04T10:18:41.755Z,26.44
2023-04-04T10:23:41.435Z,29.14
2023-04-04T10:26:08.266Z,31.68
2023-04-04T10:28:35.569Z,33.82
2023-04-04T10:31:16.487Z,34.63
2023-04-04T10:34:05.178Z,35.40
2023-04-04T10:36:42.084Z,33.79
2023-04-04T10:39:19.047Z,31.51
2023-04-04T10:41:50.849Z,30.60
2023-04-04T10:44:38.017Z,32.94
2023-04-04T10:47:16.816Z,34.49
2023-04-04T10:49:48.093Z,36.42
2023-04-04T10:52:20.190Z,36.21
2023-04-04T10:54:49.776Z,36.23
2023-04-04T10:57:17.701Z,37.94
2023-04-04T10:59:59.589Z,37.51
2023-04-04T11:02:47.573Z,35.89
2023-04-04T11:05:41.189Z,35.29
2023-04-04T11:08:14.374Z,34.36
2023-04-04T11:10:48.122Z,31.59
2023-04-04T11:13:59.564Z,29.72
2023-04-04T11:16:30.039Z,27.08
2023-04-04T11:19:00.110Z,26.58
2023-04-04T11:21:32.894Z,28.86
2023-04-04T11:24:04.931Z,30.33
2023-04-04T11:26:31.856Z,29.95
2023-04-04T11:28:58.675Z,28.86
2023-04-04T11:31:27.938Z,27.86
2023-04-04T11:34:05.053Z,30.26
2023-04-04T11:36:38.043Z,30.32
2023-04-04T11:39:10.417Z,30.89
2023-04-04T11:41:55.422Z,32.72
2023-04-04T11:44:23.881Z,29.42
2023-04-04T11:47:00.796Z,26.38
2023-04-04T11:49:30.345Z,24.90
2023-04-04T11:51:58.247Z,25.42
2023-04-04T11:54:25.261Z,26.25
2023-04-04T11:56:59.579Z,23.95
2023-04-04T11:59:26.737Z,23.00
2023-04-04T12:01:55.267Z,22.96
2023-04-04T12:04:23.055Z,21.83
2023-04-04T12:06:51.942Z,22.91
2023-04-04T12:09:20.525Z,23.40
2023-04-04T12:11:48.324Z,23.47
2023-04-04T12:14:23.797Z,22.97
2023-04-04T12:16:53.667Z,21.87
2023-04-04T12:19:23.182Z,20.44
2023-04-04T12:21:51.438Z,19.38
2023-04-04T12:24:18.771Z,19.61
2023-04-04T12:26:50.035Z,20.78
2023-04-04T12:29:18.573Z,21.73
2023-04-04T12:31:47.095Z,21.67
2023-04-04T12:34:24.901Z,21.08
2023-04-04T12:36:53.284Z,21.41
2023-04-04T12:39:21.662Z,21.69
2023-04-04T12:41:59.690Z,19.98
2023-04-04T12:44:36.275Z,18.54
2023-04-04T12:47:05.896Z,17.35
2023-04-04T12:49:40.515Z,17.10
2023-04-04T12:52:23.006Z,17.17
2023-04-04T12:55:06.676Z,17.88
2023-04-04T12:57:35.770Z,17.35
2023-04-04T13:00:06.542Z,17.24
2023-04-04T13:02:36.292Z,17.48
2023-04-04T13:05:04.013Z,17.85
2023-04-04T13:07:33.947Z,17.91
2023-04-04T13:10:05.668Z,18.27
2023-04-04T13:13:00.295Z,18.44
2023-04-04T13:16:03.735Z,17.07
2023-04-04T13:18:38.251Z,16.57
2023-04-04T13:21:10.248Z,16.55
2023-04-04T13:23:41.732Z,15.77
2023-04-04T13:26:10.465Z,16.16
2023-04-04T13:28:37.628Z,16.20
2023-04-04T13:31:06.061Z,16.13
2023-04-04T13:33:34.037Z,15.84
2023-04-04T13:36:01.288Z,15.76
2023-04-04T13:38:29.452Z,15.63
2023-04-04T13:40:58.934Z,14.55
2023-04-04T13:43:26.290Z,14.52
2023-04-04T13:45:55.970Z,14.57
2023-04-04T13:48:23.277Z,13.87
2023-04-04T13:50:55.495Z,13.74
2023-04-04T13:53:22.851Z,13.27
2023-04-04T13:56:13.017Z,13.14
2023-04-04T13:58:36.726Z,12.17
2023-04-04T14:01:12.909Z,11.36
2023-04-04T14:03:40.108Z,11.70
2023-04-04T14:06:10.861Z,12.34
2023-04-04T14:08:38.771Z,12.25
2023-04-04T14:11:07.322Z,12.68
2023-04-04T14:13:34.397Z,12.55
2023-04-04T14:16:01.652Z,12.26
2023-04-04T14:18:28.921Z,12.54
2023-04-04T14:20:56.286Z,12.92
2023-04-04T14:23:24.140Z,12.99
2023-04-04T14:25:51.395Z,12.83
2023-04-04T14:28:18.283Z,13.01
2023-04-04T14:30:45.153Z,12.56
2023-04-04T14:33:12.534Z,12.05
2023-04-04T14:35:41.581Z,11.67
2023-04-04T14:38:08.907Z,11.60
2023-04-04T14:40:35.994Z,11.62
2023-04-04T14:43:02.944Z,12.00
2023-04-04T14:45:30.483Z,11.72
2023-04-04T14:47:57.442Z,10.69
2023-04-04T14:50:24.373Z,10.36
2023-04-04T14:52:53.073Z,9.84
2023-04-04T14:55:20.847Z,9.98
2023-04-04T14:58:01.918Z,10.40
2023-04-04T15:00:30.104Z,10.25
2023-04-04T15:02:57.243Z,10.06
2023-04-04T15:05:25.222Z,10.55
2023-04-04T15:07:52.220Z,10.08
2023-04-04T15:10:19.119Z,10.45
2023-04-04T15:12:46.056Z,10.55
2023-04-04T15:15:13.711Z,10.55
2023-04-04T15:17:42.058Z,10.23
2023-04-04T15:20:09.828Z,10.17
2023-04-04T15:22:38.717Z,10.22
2023-04-04T15:25:06.404Z,10.56
2023-04-04T15:27:33.315Z,10.95
2023-04-04T15:30:00.294Z,10.66
2023-04-04T15:32:29.782Z,10.83
2023-04-04T15:34:58.790Z,10.31
2023-04-04T15:37:26.782Z,10.34
2023-04-04T15:39:54.432Z,10.24
2023-04-04T15:42:21.907Z,9.96
2023-04-04T15:44:48.785Z,9.43
2023-04-04T15:47:17.013Z,9.54
2023-04-04T15:49:43.998Z,9.72
2023-04-04T15:52:10.947Z,9.21
2023-04-04T15:54:38.256Z,9.45
2023-04-04T15:57:05.222Z,9.77
2023-04-04T15:59:32.555Z,9.89
2023-04-04T16:02:00.029Z,9.95
2023-04-04T16:04:26.911Z,9.91
2023-04-04T16:06:53.682Z,9.87
2023-04-04T16:09:21.628Z,9.77
2023-04-04T16:11:48.886Z,9.70
2023-04-04T16:14:15.915Z,9.66
2023-04-04T16:16:42.930Z,9.46
2023-04-04T16:19:10.429Z,9.32
2023-04-04T16:21:38.372Z,9.20
2023-04-04T16:24:06.241Z,9.09
2023-04-04T16:26:33.242Z,8.88
2023-04-04T16:29:03.299Z,8.64
2023-04-04T16:31:31.428Z,8.42
2023-04-04T16:33:59.429Z,8.33
2023-04-04T16:36:27.116Z,8.26
2023-04-04T16:38:55.272Z,8.24
2023-04-04T16:41:22.108Z,8.09
2023-04-04T16:43:52.876Z,7.74
2023-04-04T16:46:20.111Z,7.77
2023-04-04T16:48:47.477Z,7.62
2023-04-04T16:51:14.410Z,7.55
2023-04-04T16:53:41.161Z,7.31
2023-04-04T16:56:08.167Z,7.12
2023-04-04T16:58:35.456Z,6.84
2023-04-04T17:01:02.452Z,6.63
2023-04-04T17:03:29.638Z,6.47
2023-04-04T17:06:00.036Z,6.29
2023-04-04T17:08:27.171Z,6.28
2023-04-04T17:10:54.178Z,6.10
2023-04-04T17:13:21.384Z,6.06
2023-04-04T17:15:48.630Z,5.88
2023-04-04T17:18:18.011Z,5.76
2023-04-04T17:20:45.136Z,5.58
2023-04-04T17:23:12.185Z,5.42
2023-04-04T17:25:39.263Z,5.32
2023-04-04T17:28:06.671Z,5.20
2023-04-04T17:30:33.632Z,5.11
2023-04-04T17:33:00.655Z,5.01
2023-04-04T17:35:27.924Z,4.89
2023-04-04T17:37:55.036Z,4.75
2023-04-04T17:40:21.917Z,4.56
2023-04-04T17:42:49.480Z,4.35
2023-04-04T17:45:16.880Z,4.17
2023-04-04T17:47:44.974Z,4.04
2023-04-04T17:50:16.415Z,3.93
2023-04-04T17:52:44.291Z,3.82
2023-04-04T17:55:11.666Z,3.63
2023-04-04T17:57:38.568Z,3.51
2023-04-04T18:00:06.113Z,3.30
2023-04-04T18:02:33.230Z,3.18
2023-04-04T18:05:00.054Z,3.00
2023-04-04T18:07:27.397Z,2.89
2023-04-04T18:09:54.586Z,2.85
2023-04-04T18:12:21.348Z,2.78
2023-04-04T18:14:48.827Z,2.74
2023-04-04T18:17:15.873Z,2.68
2023-04-04T18:19:43.057Z,2.49
2023-04-04T18:22:09.970Z,2.40
2023-04-04T18:24:37.701Z,2.31
2023-04-04T18:27:04.660Z,2.23
2023-04-04T18:29:32.801Z,2.17
2023-04-04T18:32:02.939Z,2.15
2023-04-04T18:34:30.553Z,2.11
2023-04-04T18:36:57.841Z,2.05
2023-04-04T18:39:25.283Z,1.89
2023-04-04T18:41:52.640Z,1.87
2023-04-04T18:44:19.943Z,1.77
2023-04-04T18:46:47.082Z,1.70
2023-04-04T18:49:14.714Z,1.64
2023-04-04T18:51:42.366Z,1.60
2023-04-04T18:54:09.447Z,1.55
2023-04-04T18:56:37.967Z,1.52
2023-04-04T18:59:05.944Z,1.48
2023-04-04T19:01:33.108Z,1.42
2023-04-04T19:04:02.875Z,1.34
2023-04-04T19:06:32.443Z,1.22
2023-04-04T19:09:04.325Z,1.18
2023-04-04T19:11:31.982Z,1.08
2023-04-04T19:13:58.997Z,1.06
2023-04-04T19:16:26.102Z,1.00
2023-04-04T19:18:53.041Z,0.97
2023-04-04T19:21:20.240Z,0.91
2023-04-04T19:23:47.768Z,0.79
2023-04-04T19:26:16.311Z,0.81
2023-04-04T19:28:46.455Z,0.76
2023-04-04T19:31:24.168Z,0.71
2023-04-04T19:33:55.366Z,0.63
2023-04-04T19:36:23.180Z,0.58
2023-04-04T19:38:54.026Z,0.54
2023-04-04T19:41:24.746Z,0.46
2023-04-04T19:43:51.734Z,0.38
2023-04-04T19:46:26.885Z,0.33
2023-04-04T19:48:58.238Z,0.29
2023-04-04T19:51:26.366Z,0.24
2023-04-04T19:53:55.015Z,0.23
2023-04-04T19:56:23.707Z,0.19
2023-04-04T19:59:02.437Z,0.04
2023-04-04T20:01:32.011Z,-0.02
2023-04-04T20:04:06.997Z,-0.07
2023-04-04T20:06:35.637Z,-0.09
2023-04-04T20:09:25.624Z,-0.11
2023-04-04T20:11:52.473Z,-0.17
2023-04-04T20:14:22.381Z,-0.18
2023-04-04T20:16:49.861Z,-0.21
2023-04-04T20:19:21.117Z,-0.25
2023-04-04T20:21:48.846Z,-0.29
2023-04-04T20:24:17.755Z,-0.31
2023-04-04T20:26:55.731Z,-0.47
2023-04-04T20:29:31.472Z,-0.32
2023-04-04T20:32:03.833Z,-0.33
2023-04-04T20:34:36.924Z,-0.42
2023-04-04T20:37:08.002Z,-0.43
2023-04-04T20:39:55.720Z,-0.45
2023-04-04T20:42:30.556Z,-0.48
2023-04-04T20:45:02.611Z,-0.56
2023-04-04T20:47:53.152Z,-0.58
2023-04-04T20:50:23.421Z,-0.58
2023-04-04T20:52:53.408Z,-0.64
2023-04-04T20:55:22.877Z,-0.66
2023-04-04T20:57:51.581Z,-0.69
2023-04-04T21:00:39.836Z,-0.71
2023-04-04T21:03:23.288Z,-0.73
2023-04-04T21:05:50.524Z,-0.91
2023-04-04T21:08:20.341Z,-0.97
2023-04-04T21:10:55.186Z,-0.98
2023-04-04T21:13:37.068Z,-0.96
2023-04-04T21:16:08.842Z,-1.07
2023-04-04T21:18:37.018Z,-1.01
2023-04-04T21:21:08.183Z,-0.99
2023-04-04T21:23:43.686Z,-1.02
2023-04-04T21:26:24.328Z,-0.97
2023-04-04T21:28:51.283Z,-1.05
2023-04-04T21:31:21.722Z,-1.12
2023-04-04T21:33:56.370Z,-1.20
2023-04-04T21:36:28.024Z,-1.16
2023-04-04T21:39:00.139Z,-1.11
2023-04-04T21:41:38.122Z,-1.12
2023-04-04T21:44:07.704Z,-1.15
2023-04-04T21:46:37.303Z,-1.27
2023-04-04T21:49:06.464Z,-1.35
2023-04-04T21:51:34.019Z,-1.36
2023-04-04T21:54:01.802Z,-1.38
2023-04-04T21:56:31.735Z,-1.45
2023-04-04T21:59:03.011Z,-1.85
2023-04-04T22:01:30.801Z,-1.71
2023-04-04T22:03:58.482Z,-1.53
2023-04-04T22:06:45.406Z,-1.52
2023-04-04T22:09:12.513Z,-1.50
2023-04-04T22:11:44.641Z,-1.47
2023-04-04T22:14:18.188Z,-1.47
2023-04-04T22:16:45.787Z,-1.45
2023-04-04T22:19:13.702Z,-1.46
2023-04-04T22:21:48.377Z,-1.50
2023-04-04T22:24:15.931Z,-1.50
2023-04-04T22:26:42.998Z,-1.44
2023-04-04T22:29:10.178Z,-1.50
2023-04-04T22:31:38.015Z,-1.54
2023-04-04T22:34:06.482Z,-1.54
2023-04-04T22:36:34.688Z,-1.64
2023-04-04T22:39:02.378Z,-1.67
2023-04-04T22:41:29.990Z,-1.74
2023-04-04T22:43:57.986Z,-1.80
2023-04-04T22:46:26.810Z,-1.87
2023-04-04T22:49:05.658Z,-2.03
2023-04-04T22:51:43.489Z,-1.97
2023-04-04T22:54:13.332Z,-2.05
2023-04-04T22:56:40.818Z,-2.13
2023-04-04T22:59:07.868Z,-2.09
2023-04-04T23:01:34.811Z,-2.05
2023-04-04T23:04:01.877Z,-2.17
2023-04-04T23:06:29.936Z,-2.16
2023-04-04T23:08:56.955Z,-2.13
2023-04-04T23:11:24.007Z,-2.09
2023-04-04T23:13:52.327Z,-2.12
2023-04-04T23:16:19.323Z,-2.15
2023-04-04T23:18:47.672Z,-2.21
2023-04-04T23:21:14.606Z,-2.20
2023-04-04T23:23:41.852Z,-2.23
2023-04-04T23:26:08.753Z,-2.31
2023-04-04T23:28:35.818Z,-2.22
2023-04-04T23:31:02.770Z,-2.18
2023-04-04T23:33:29.658Z,-2.26
2023-04-04T23:35:56.834Z,-2.31
2023-04-04T23:38:24.124Z,-2.33
2023-04-04T23:40:51.306Z,-2.48
2023-04-04T23:43:18.194Z,-2.36
2023-04-04T23:45:45.050Z,-2.46
2023-04-04T23:48:12.766Z,-2.36
2023-04-04T23:50:41.586Z,-2.17
2023-04-04T23:53:08.856Z,-2.20
2023-04-04T23:55:35.989Z,-2.29
2023-04-04T23:58:03.733Z,-2.36
